ZSSS/SHA METAR and TAF weather

Enter ICAO airport designator
Station Type Date Time Source
ZSSS METAR 2019/08/22 05:30 UTC NOAA

ZSSS 220530Z 06003MPS 010V110 9999 BKN040 33/23 Q1007 NOSIG


Station Type Date Time Source
ZSSS Decoded METAR 2019/08/22 05:30 UTC NOAA

Station name not available
Aug 22, 2019 - 01:30 AM EDT / 2019.08.22 0530 UTC
Wind: from the ENE (060 degrees) at 7 MPH (6 KT) (direction variable):0
Visibility: greater than 7 mile(s):0
Sky conditions: mostly cloudy
Temperature: 91 F (33 C)
Heat index: 99.1 F (37.3 C):1
Dew Point: 73 F (23 C)
Relative Humidity: 55%
Pressure (altimeter): 29.74 in. Hg (1007 hPa)
ob: ZSSS 220530Z 06003MPS 010V110 9999 BKN040 33/23 Q1007 NOSIG
cycle: 5

Station Type Date Time Source
ZSSS TAF 2019/08/22 06:03 UTC NOAA

TAF ZSSS 220310Z 2206/2306 06004MPS 9999 SCT030 TX34/2206Z TN26/2221Z

Example: see airport list